Time;durP1;ratioP1;P1;durP2;ratioP2;P2;SDS_P1;SDS_P2;PMS_P1;PMS_P2;Temp;Humidity;BMP_temperature;BMP_pressure;BME280_temperature;BME280_humidity;BME280_pressure;Samples;Min_cycle;Max_cycle;Signal;HPM_P1;HPM_P2
2022/07/19 00:01:08;;;;;;;11.23;4.05;;;;;;;25.22;56.38;100769.69;2110141;28;20098;-74
2022/07/19 00:02:29;;;;;;;13.35;2.75;;;;;;;25.20;56.61;100764.38;2098898;28;20068;-74
2022/07/19 00:03:52;;;;;;;10.70;3.45;;;;;;;25.19;56.65;100773.41;2093272;28;20067;-73
2022/07/19 00:05:15;;;;;;;12.88;3.03;;;;;;;25.19;56.93;100770.72;2099343;28;20040;-73
2022/07/19 00:06:36;;;;;;;10.43;2.65;;;;;;;25.17;56.60;100761.78;2110180;28;20052;-73
2022/07/19 00:07:59;;;;;;;14.65;2.85;;;;;;;25.16;56.71;100769.94;2104374;28;20048;-73
2022/07/19 00:09:20;;;;;;;11.10;2.92;;;;;;;25.16;56.85;100764.53;2110289;28;20091;-74
2022/07/19 00:10:43;;;;;;;14.13;3.22;;;;;;;25.15;56.61;100768.19;2104542;28;20493;-73
2022/07/19 00:12:04;;;;;;;9.55;3.13;;;;;;;25.14;56.83;100770.00;2102221;28;20066;-73
2022/07/19 00:13:28;;;;;;;15.10;3.28;;;;;;;25.15;56.55;100766.38;2093236;28;20146;-73
2022/07/19 00:14:50;;;;;;;12.60;3.10;;;;;;;25.14;56.58;100770.00;2099561;28;20083;-73
2022/07/19 00:16:12;;;;;;;9.02;2.72;;;;;;;25.15;56.87;100760.09;2111991;28;20039;-73
2022/07/19 00:17:35;;;;;;;12.48;3.60;;;;;;;25.12;56.64;100758.41;2114954;28;20081;-73
2022/07/19 00:18:58;;;;;;;14.85;3.50;;;;;;;25.11;56.69;100767.47;2097787;28;20095;-73
2022/07/19 00:20:23;;;;;;;10.68;2.60;;;;;;;25.09;56.72;100763.06;2092471;28;20051;-73
2022/07/19 00:21:45;;;;;;;16.15;3.67;;;;;;;25.08;56.83;100754.06;2101933;28;20048;-73
2022/07/19 00:23:08;;;;;;;12.35;3.55;;;;;;;25.07;56.85;100752.34;2103366;28;20059;-73
2022/07/19 00:24:30;;;;;;;13.70;3.25;;;;;;;25.08;56.49;100755.91;2103726;28;20534;-73
2022/07/19 00:25:52;;;;;;;14.18;3.35;;;;;;;25.04;56.79;100755.16;2103423;28;20497;-73
2022/07/19 00:27:14;;;;;;;15.93;3.15;;;;;;;25.04;56.67;100759.69;2105854;28;20443;-74
2022/07/19 00:28:38;;;;;;;9.15;2.67;;;;;;;25.04;56.51;100754.28;2095094;28;20502;-75
2022/07/19 00:30:00;;;;;;;18.77;2.72;;;;;;;25.02;56.57;100749.81;2101202;28;20135;-74
2022/07/19 00:31:21;;;;;;;10.15;2.88;;;;;;;25.01;56.63;100758.00;2103451;28;20059;-73
2022/07/19 00:32:44;;;;;;;12.05;3.05;;;;;;;24.99;56.65;100747.28;2103326;28;20731;-74
2022/07/19 00:34:05;;;;;;;11.35;2.88;;;;;;;24.98;56.68;100745.50;2106145;28;20051;-74
2022/07/19 00:35:28;;;;;;;13.43;3.10;;;;;;;24.97;56.87;100757.25;2097658;28;20090;-73
2022/07/19 00:36:49;;;;;;;15.13;2.85;;;;;;;24.97;56.71;100757.25;2101010;28;20062;-74
2022/07/19 00:38:15;;;;;;;8.23;2.72;;;;;;;24.95;56.87;100748.34;2103459;28;20048;-74
2022/07/19 00:39:37;;;;;;;14.20;2.83;;;;;;;24.94;56.77;100751.97;2103861;28;20106;-73
2022/07/19 00:41:02;;;;;;;13.70;3.20;;;;;;;24.93;57.06;100742.16;2106251;28;20024;-74
2022/07/19 00:42:26;;;;;;;16.13;3.90;;;;;;;24.92;57.09;100744.91;2106209;28;20052;-74
2022/07/19 00:43:50;;;;;;;14.88;2.97;;;;;;;24.91;56.81;100745.84;2103533;28;20139;-74
2022/07/19 00:45:14;;;;;;;23.83;3.90;;;;;;;24.88;56.90;100744.13;2103901;28;20048;-74
2022/07/19 00:46:35;;;;;;;13.98;3.10;;;;;;;24.88;57.21;100745.94;2086957;28;20049;-74
2022/07/19 00:47:58;;;;;;;11.50;2.75;;;;;;;24.89;56.86;100753.09;2097927;28;20099;-74
2022/07/19 00:49:20;;;;;;;10.05;2.58;;;;;;;24.87;56.98;100745.09;2103557;28;20051;-73
2022/07/19 00:50:41;;;;;;;12.40;3.20;;;;;;;24.86;57.15;100748.72;2097810;28;20056;-74
2022/07/19 00:52:05;;;;;;;9.27;2.42;;;;;;;24.85;57.14;100744.25;2094672;28;20485;-73
2022/07/19 00:53:26;;;;;;;17.15;3.58;;;;;;;24.83;57.23;100742.56;2095244;28;20183;-74
2022/07/19 00:54:50;;;;;;;14.52;3.20;;;;;;;24.82;57.24;100741.69;2103413;28;20547;-73
2022/07/19 00:56:12;;;;;;;12.50;3.03;;;;;;;24.81;57.41;100741.78;2097621;28;20041;-74
2022/07/19 00:57:37;;;;;;;12.25;2.53;;;;;;;24.79;57.17;100740.94;2103412;28;20058;-73
2022/07/19 00:59:04;;;;;;;10.98;3.70;;;;;;;24.78;57.18;100740.06;2097586;28;20076;-74
2022/07/19 01:00:28;;;;;;;20.83;3.72;;;;;;;24.78;57.16;100737.38;2097420;28;20068;-73
2022/07/19 01:01:50;;;;;;;14.15;4.07;;;;;;;24.78;57.01;100740.06;2095373;28;20064;-74
2022/07/19 01:03:13;;;;;;;;;;;;;;;24.75;57.19;100734.78;2095382;28;20131;-73
2022/07/19 01:04:36;;;;;;;10.25;2.78;;;;;;;24.73;57.38;100734.00;2094973;28;20022;-73
2022/07/19 01:05:57;;;;;;;12.90;3.33;;;;;;;24.75;57.14;100733.91;2095070;28;20135;-73
2022/07/19 01:07:20;;;;;;;13.80;3.55;;;;;;;24.72;57.13;100726.84;2094984;28;20753;-74
2022/07/19 01:08:43;;;;;;;15.10;3.20;;;;;;;24.71;57.31;100737.69;2094765;28;20060;-74
2022/07/19 01:10:07;;;;;;;12.48;3.15;;;;;;;24.68;57.58;100733.28;2103066;28;20082;-74
2022/07/19 01:11:30;;;;;;;18.70;4.43;;;;;;;24.69;57.23;100740.47;2097645;28;20060;-74
2022/07/19 01:12:54;;;;;;;9.45;3.40;;;;;;;24.68;57.31;100729.75;2094917;28;20482;-73
2022/07/19 01:14:16;;;;;;;10.68;3.10;;;;;;;24.67;57.50;100733.38;2094431;28;20127;-74
2022/07/19 01:15:41;;;;;;;8.27;2.33;;;;;;;24.66;57.28;100735.19;2095051;28;20506;-74
2022/07/19 01:17:02;;;;;;;16.83;3.38;;;;;;;24.66;57.27;100729.81;2086529;28;20072;-74
2022/07/19 01:18:25;;;;;;;13.00;3.20;;;;;;;24.66;57.56;100737.03;2092132;28;20057;-73
2022/07/19 01:19:46;;;;;;;8.52;2.80;;;;;;;24.66;57.43;100737.03;2094832;28;20064;-73
2022/07/19 01:21:10;;;;;;;13.95;3.15;;;;;;;24.67;57.48;100738.78;2102975;28;20044;-74
2022/07/19 01:22:33;;;;;;;12.60;3.25;;;;;;;24.68;57.38;100727.91;2097375;28;20099;-73
2022/07/19 01:23:56;;;;;;;13.15;3.10;;;;;;;24.66;57.73;100732.50;2099795;28;20048;-74
2022/07/19 01:25:17;;;;;;;7.68;2.63;;;;;;;24.66;57.75;100726.22;2102969;28;20075;-74
2022/07/19 01:26:40;;;;;;;7.13;2.00;;;;;;;24.63;57.75;100736.19;2103086;28;20052;-73
2022/07/19 01:28:04;;;;;;;10.10;2.67;;;;;;;24.63;57.81;100746.13;2111364;28;20051;-74
2022/07/19 01:29:27;;;;;;;11.73;2.47;;;;;;;24.61;57.68;100745.31;2105637;28;20493;-74
2022/07/19 01:30:48;;;;;;;13.68;3.17;;;;;;;24.62;57.62;100744.34;2105532;28;20048;-73
2022/07/19 01:32:10;;;;;;;8.23;2.63;;;;;;;24.61;57.74;100740.78;2102955;28;20135;-74
2022/07/19 01:33:38;;;;;;;11.85;2.85;;;;;;;24.60;57.58;100744.44;2111549;28;20115;-74
2022/07/19 01:34:59;;;;;;;16.70;3.28;;;;;;;24.60;57.82;100741.75;2105722;28;20776;-74
2022/07/19 01:36:22;;;;;;;11.98;2.50;;;;;;;24.59;57.76;100740.00;2102963;28;20040;-73
2022/07/19 01:37:45;;;;;;;11.82;2.72;;;;;;;24.57;57.52;100739.16;2094398;28;20063;-74
2022/07/19 01:39:08;;;;;;;16.33;2.97;;;;;;;24.56;57.69;100739.22;2100636;28;20061;-73
2022/07/19 01:40:30;;;;;;;15.13;3.20;;;;;;;24.56;57.37;100741.91;2102970;28;20044;-73
2022/07/19 01:41:52;;;;;;;14.60;2.50;;;;;;;24.57;57.48;100741.88;2102685;28;20087;-74
2022/07/19 01:43:14;;;;;;;8.05;2.53;;;;;;;24.54;57.36;100733.91;2111448;28;20409;-74
2022/07/19 01:44:36;;;;;;;12.07;3.08;;;;;;;24.52;57.51;100740.31;2105342;28;20549;-73
2022/07/19 01:45:58;;;;;;;11.40;3.88;;;;;;;24.51;57.35;100730.44;2103002;28;20072;-74
2022/07/19 01:47:20;;;;;;;11.20;2.78;;;;;;;24.50;57.76;100742.19;2103161;28;20554;-74
2022/07/19 01:48:43;;;;;;;16.65;3.50;;;;;;;24.48;57.79;100731.44;2111139;28;20130;-74
2022/07/19 01:50:06;;;;;;;14.70;3.00;;;;;;;24.51;57.76;100735.84;2102988;28;20135;-73
2022/07/19 01:51:29;;;;;;;15.15;2.58;;;;;;;24.48;57.53;100736.84;2108941;28;20142;-74
2022/07/19 01:52:52;;;;;;;18.10;2.75;;;;;;;24.47;57.65;100734.22;2111301;28;20066;-74
2022/07/19 01:54:15;;;;;;;10.52;2.80;;;;;;;24.44;58.00;100727.13;2111321;28;20036;-74
2022/07/19 01:55:37;;;;;;;7.85;2.53;;;;;;;24.43;57.82;100741.56;2111301;28;20064;-74
2022/07/19 01:57:00;;;;;;;8.15;2.50;;;;;;;24.42;57.92;100714.63;2111442;28;20504;-74
2022/07/19 01:58:22;;;;;;;14.23;2.92;;;;;;;24.41;58.06;100729.97;2110879;28;20052;-74
2022/07/19 01:59:44;;;;;;;8.38;2.65;;;;;;;24.41;58.05;100718.31;2111344;28;20484;-74
2022/07/19 02:01:06;;;;;;;12.77;2.67;;;;;;;24.40;58.20;100724.63;2111017;28;20152;-73
2022/07/19 02:02:28;;;;;;;11.15;2.80;;;;;;;24.37;58.30;100720.22;2113947;28;20047;-73
2022/07/19 02:03:50;;;;;;;10.45;2.88;;;;;;;24.38;58.16;100729.22;2111189;28;20557;-73
2022/07/19 02:05:12;;;;;;;18.52;3.10;;;;;;;24.36;58.11;100740.06;2111324;28;20051;-73
2022/07/19 02:06:34;;;;;;;11.43;2.80;;;;;;;24.34;58.25;100723.06;2111410;28;20097;-73
2022/07/19 02:07:57;;;;;;;13.45;2.92;;;;;;;24.33;58.19;100726.72;2111245;28;20075;-73
2022/07/19 02:09:19;;;;;;;11.88;3.20;;;;;;;24.34;58.43;100728.47;2111298;28;20055;-73
2022/07/19 02:10:42;;;;;;;11.65;2.45;;;;;;;24.33;58.39;100725.81;2111212;28;20074;-73
2022/07/19 02:12:03;;;;;;;9.82;2.75;;;;;;;24.33;58.36;100725.81;2113852;28;20130;-72
2022/07/19 02:13:26;;;;;;;11.45;2.47;;;;;;;24.33;58.39;100732.09;2102585;28;20063;-72
2022/07/19 02:14:47;;;;;;;14.63;3.03;;;;;;;24.35;58.04;100735.59;2108434;28;20039;-72
2022/07/19 02:16:10;;;;;;;8.90;2.78;;;;;;;24.35;58.08;100729.34;2111111;28;20594;-73
2022/07/19 02:17:31;;;;;;;19.92;3.42;;;;;;;24.35;58.27;100729.34;2110859;28;20165;-73
2022/07/19 02:18:54;;;;;;;12.45;2.72;;;;;;;24.33;58.26;100734.81;2111230;28;20139;-73
2022/07/19 02:20:16;;;;;;;13.10;2.83;;;;;;;24.33;58.17;100732.09;2110650;28;20129;-73
2022/07/19 02:21:38;;;;;;;12.40;2.78;;;;;;;24.33;58.35;100740.22;2102394;28;20118;-72
2022/07/19 02:23:02;;;;;;;6.22;1.60;;;;;;;24.31;58.46;100742.06;2108328;28;20104;-73
2022/07/19 02:24:23;;;;;;;13.57;2.47;;;;;;;24.30;58.32;100737.63;2113493;28;20116;-72
2022/07/19 02:25:46;;;;;;;7.95;2.13;;;;;;;24.29;58.29;100743.06;2110798;28;20051;-73
2022/07/19 02:27:07;;;;;;;11.32;2.33;;;;;;;24.27;58.45;100740.47;2104234;28;20040;-72
2022/07/19 02:28:29;;;;;;;12.48;2.40;;;;;;;24.28;58.45;100741.34;2110463;28;20043;-72
2022/07/19 02:29:52;;;;;;;10.70;2.60;;;;;;;24.28;58.19;100744.03;2102436;28;20048;-74
2022/07/19 02:31:14;;;;;;;8.55;2.33;;;;;;;24.27;58.32;100737.75;2108538;28;20070;-73
2022/07/19 02:32:36;;;;;;;11.27;2.70;;;;;;;24.26;58.40;100741.41;2110850;28;20055;-73
2022/07/19 02:33:58;;;;;;;9.80;2.83;;;;;;;24.26;58.28;100744.09;2102239;28;20065;-78
2022/07/19 02:35:21;;;;;;;8.98;2.28;;;;;;;24.27;58.33;100747.69;2108086;28;20073;-73
2022/07/19 02:36:42;;;;;;;9.98;3.95;;;;;;;24.26;58.31;100738.69;2110657;28;20479;-73
2022/07/19 02:38:06;;;;;;;8.57;2.35;;;;;;;24.28;58.26;100754.84;2110276;28;20071;-74
2022/07/19 02:39:28;;;;;;;11.63;2.60;;;;;;;24.26;58.06;100754.00;2110994;28;20040;-73
2022/07/19 02:40:51;;;;;;;13.63;2.63;;;;;;;24.25;58.05;100754.94;2110427;28;20056;-73
2022/07/19 02:42:13;;;;;;;9.52;2.10;;;;;;;24.23;58.17;100755.88;2102640;28;20536;-73
2022/07/19 02:43:36;;;;;;;14.60;2.65;;;;;;;24.25;58.20;100757.63;2116628;27;20058;-73
2022/07/19 02:44:59;;;;;;;13.15;2.95;;;;;;;24.24;57.83;100759.47;2113620;28;20047;-73
2022/07/19 02:46:22;;;;;;;9.68;2.42;;;;;;;24.25;58.10;100757.63;2102498;28;20480;-72
2022/07/19 02:47:44;;;;;;;15.23;3.65;;;;;;;24.22;58.14;100750.53;2110709;28;20130;-73
2022/07/19 02:49:06;;;;;;;8.23;3.20;;;;;;;24.24;57.92;100754.06;2110729;28;20039;-73
2022/07/19 02:50:28;;;;;;;15.40;2.63;;;;;;;24.22;58.05;100745.13;2110972;28;20059;-73
2022/07/19 02:51:51;;;;;;;9.05;2.55;;;;;;;24.21;58.01;100746.13;2110920;28;20568;-73
2022/07/19 02:53:14;;;;;;;14.77;2.63;;;;;;;24.20;58.03;100744.34;2110473;28;20081;-72
2022/07/19 02:54:37;;;;;;;10.00;2.65;;;;;;;24.19;58.01;100747.97;2110725;28;20043;-73
2022/07/19 02:55:59;;;;;;;13.02;2.13;;;;;;;24.19;57.97;100742.59;2110626;28;20075;-73
2022/07/19 02:57:22;;;;;;;17.65;3.13;;;;;;;24.17;57.92;100748.00;2110809;28;20436;-73
2022/07/19 02:58:43;;;;;;;11.25;2.50;;;;;;;24.15;57.79;100754.41;2110869;28;20079;-72
2022/07/19 03:00:08;;;;;;;11.82;2.60;;;;;;;24.12;57.96;100754.53;2110628;28;20045;-73
2022/07/19 03:01:29;;;;;;;10.20;3.00;;;;;;;24.12;57.86;100749.13;2110236;28;20101;-72
2022/07/19 03:02:52;;;;;;;19.42;3.20;;;;;;;24.10;57.83;100748.31;2110474;28;20054;-73
2022/07/19 03:04:14;;;;;;;12.45;3.80;;;;;;;24.09;57.70;100758.22;2110832;28;20059;-73
2022/07/19 03:05:36;;;;;;;12.15;2.72;;;;;;;24.09;57.69;100760.91;2110327;28;20054;-73
2022/07/19 03:06:58;;;;;;;10.05;2.17;;;;;;;24.09;57.60;100763.63;2110794;28;20043;-72
2022/07/19 03:08:21;;;;;;;8.63;2.75;;;;;;;24.08;57.64;100763.69;2110285;28;20035;-73
2022/07/19 03:09:45;;;;;;;12.25;2.10;;;;;;;24.08;57.73;100766.41;2101994;28;20551;-73
2022/07/19 03:11:07;;;;;;;10.57;2.70;;;;;;;24.10;57.55;100754.59;2108488;28;20138;-73
2022/07/19 03:12:29;;;;;;;7.68;2.05;;;;;;;24.11;57.37;100758.16;2110538;28;20517;-72
2022/07/19 03:13:52;;;;;;;6.95;2.15;;;;;;;24.12;57.34;100765.31;2113146;28;20100;-73
2022/07/19 03:15:14;;;;;;;11.25;2.50;;;;;;;24.12;57.32;100765.31;2110659;28;20047;-73
2022/07/19 03:16:37;;;;;;;10.20;2.63;;;;;;;24.12;57.44;100770.72;2102181;28;20102;-73
2022/07/19 03:17:59;;;;;;;12.60;3.88;;;;;;;24.13;57.33;100767.97;2107558;28;20036;-72
2022/07/19 03:19:22;;;;;;;9.07;2.70;;;;;;;24.13;57.17;100769.78;2110620;28;20166;-73
2022/07/19 03:20:43;;;;;;;10.05;4.00;;;;;;;24.12;57.11;100771.59;2110433;28;20086;-73
2022/07/19 03:22:06;;;;;;;12.98;2.17;;;;;;;24.12;57.15;100777.00;2110517;28;20138;-73
2022/07/19 03:23:32;;;;;;;11.75;2.58;;;;;;;24.14;57.09;100785.03;2101782;28;20068;-73
2022/07/19 03:24:56;;;;;;;13.23;2.70;;;;;;;24.13;57.09;100783.28;2100388;28;20056;-74
2022/07/19 03:26:19;;;;;;;15.27;2.92;;;;;;;24.12;57.26;100782.38;2108218;28;20052;-73
2022/07/19 03:27:41;;;;;;;11.88;2.50;;;;;;;24.13;57.07;100778.75;2110396;28;20052;-73
2022/07/19 03:29:04;;;;;;;7.78;2.35;;;;;;;24.12;57.03;100777.00;2110295;28;20086;-73
2022/07/19 03:30:26;;;;;;;14.57;2.50;;;;;;;24.12;57.34;100792.31;2110356;28;20051;-73
2022/07/19 03:31:48;;;;;;;13.88;2.50;;;;;;;24.13;57.14;100780.56;2113300;28;20046;-74
2022/07/19 03:33:10;;;;;;;10.10;2.47;;;;;;;24.13;57.16;100777.88;2110376;28;20488;-73
2022/07/19 03:34:32;;;;;;;10.02;1.88;;;;;;;24.19;57.11;100785.75;2110592;28;20055;-73
2022/07/19 03:35:54;;;;;;;8.40;2.30;;;;;;;24.22;57.03;100785.63;2102206;28;20082;-74
2022/07/19 03:37:16;;;;;;;7.47;1.98;;;;;;;24.26;56.90;100784.56;2107298;28;20047;-74
2022/07/19 03:38:40;;;;;;;14.75;2.60;;;;;;;24.31;56.73;100790.66;2102035;28;20048;-73
2022/07/19 03:40:02;;;;;;;14.60;2.25;;;;;;;24.35;56.83;100788.72;2108256;28;20058;-73
2022/07/19 03:41:24;;;;;;;12.52;3.13;;;;;;;24.40;56.84;100784.00;2110200;28;20052;-74
2022/07/19 03:42:45;;;;;;;8.55;2.33;;;;;;;24.45;56.67;100796.38;2113124;28;20451;-74
2022/07/19 03:44:08;;;;;;;12.10;2.30;;;;;;;24.50;56.75;100780.84;2101685;28;20048;-74
2022/07/19 03:45:29;;;;;;;17.08;2.70;;;;;;;24.55;56.64;100786.94;2107669;28;20075;-73
2022/07/19 03:46:52;;;;;;;16.98;2.28;;;;;;;24.58;56.53;100792.22;2110326;28;20104;-73
2022/07/19 03:48:13;;;;;;;11.43;2.15;;;;;;;24.63;56.54;100795.59;2109419;28;20067;-73
2022/07/19 03:49:36;;;;;;;9.65;1.92;;;;;;;24.69;56.22;100791.75;2102074;28;20051;-74
2022/07/19 03:50:58;;;;;;;13.18;2.50;;;;;;;24.74;56.32;100797.88;2102021;28;20048;-73
2022/07/19 03:52:19;;;;;;;13.90;2.38;;;;;;;24.81;56.09;100798.50;2093853;28;20414;-73
2022/07/19 03:53:45;;;;;;;12.15;3.00;;;;;;;24.88;56.20;100789.16;2101716;28;20044;-73
2022/07/19 03:55:08;;;;;;;15.18;2.92;;;;;;;24.95;55.88;100791.56;2102528;28;20635;-74
2022/07/19 03:56:30;;;;;;;13.02;2.90;;;;;;;25.02;55.81;100790.34;2102107;28;20055;-73
2022/07/19 03:57:53;;;;;;;14.85;2.30;;;;;;;25.11;55.76;100791.78;2101707;28;20040;-72
2022/07/19 03:59:15;;;;;;;13.95;2.75;;;;;;;25.20;55.93;100790.50;2102178;28;20470;-73
2022/07/19 04:00:37;;;;;;;16.02;2.80;;;;;;;25.29;55.74;100798.19;2096127;28;20098;-73
2022/07/19 04:01:59;;;;;;;10.52;3.97;;;;;;;25.35;55.55;100792.50;2099110;28;20036;-73
2022/07/19 04:03:23;;;;;;;11.88;2.92;;;;;;;25.45;55.62;100803.78;2102158;28;20044;-73
2022/07/19 04:04:45;;;;;;;17.75;2.45;;;;;;;25.52;55.16;100806.16;2101505;28;20059;-73
2022/07/19 04:06:09;;;;;;;10.13;2.42;;;;;;;25.65;55.06;100793.88;2093734;28;20041;-74
2022/07/19 04:07:32;;;;;;;10.02;2.28;;;;;;;25.75;54.96;100800.59;2093587;28;20068;-73
2022/07/19 04:08:57;;;;;;;12.07;2.85;;;;;;;25.86;55.02;100801.94;2102100;28;20109;-73
2022/07/19 04:10:19;;;;;;;14.60;2.50;;;;;;;25.93;54.54;100798.84;2102153;28;20131;-74
2022/07/19 04:11:42;;;;;;;9.68;1.90;;;;;;;25.99;54.70;100803.97;2101781;28;20505;-73
2022/07/19 04:13:04;;;;;;;12.73;2.38;;;;;;;26.07;54.56;100801.78;2101758;28;20116;-73
2022/07/19 04:14:27;;;;;;;6.85;2.03;;;;;;;26.17;54.49;100800.41;2101839;28;20134;-73
2022/07/19 04:15:49;;;;;;;11.15;3.08;;;;;;;26.31;54.33;100809.72;2101931;28;20138;-73
2022/07/19 04:17:12;;;;;;;13.90;2.38;;;;;;;26.46;53.85;100803.53;2101948;28;20043;-73
2022/07/19 04:18:34;;;;;;;8.98;1.98;;;;;;;26.61;53.62;100800.06;2101803;28;20085;-73
2022/07/19 04:19:55;;;;;;;8.13;1.83;;;;;;;26.74;53.41;100798.50;2096375;28;20048;-73
2022/07/19 04:21:18;;;;;;;10.77;2.15;;;;;;;26.86;53.12;100803.28;2101772;28;20125;-73
2022/07/19 04:22:41;;;;;;;11.05;2.42;;;;;;;26.98;52.83;100805.38;2101962;28;20052;-73
2022/07/19 04:24:04;;;;;;;12.45;2.45;;;;;;;27.13;52.56;100797.44;2110887;28;20103;-73
2022/07/19 04:25:27;;;;;;;14.75;2.58;;;;;;;27.26;52.22;100803.94;2110099;28;20134;-73
2022/07/19 04:26:49;;;;;;;12.27;2.40;;;;;;;27.34;52.12;100794.47;2110364;28;20039;-73
2022/07/19 04:28:12;;;;;;;10.18;2.50;;;;;;;27.45;51.67;100802.00;2112828;28;20483;-74
2022/07/19 04:29:33;;;;;;;13.45;2.45;;;;;;;27.56;51.22;100796.06;2101682;28;20138;-74
2022/07/19 04:30:56;;;;;;;11.75;2.00;;;;;;;27.63;51.12;100801.09;2110125;28;20044;-73
2022/07/19 04:32:19;;;;;;;10.25;2.28;;;;;;;27.75;50.84;100794.97;2101910;28;20090;-73
2022/07/19 04:33:41;;;;;;;10.93;2.17;;;;;;;27.92;50.51;100794.03;2110032;28;20114;-73
2022/07/19 04:35:03;;;;;;;10.35;2.00;;;;;;;28.07;50.26;100795.00;2110152;28;20036;-73
2022/07/19 04:36:26;;;;;;;12.50;2.30;;;;;;;28.22;49.92;100796.03;2104504;28;20044;-74
2022/07/19 04:37:48;;;;;;;10.90;2.63;;;;;;;28.38;49.62;100800.47;2107418;28;20413;-73
2022/07/19 04:39:11;;;;;;;7.35;1.58;;;;;;;28.55;49.23;100800.38;2110450;28;20535;-74
2022/07/19 04:40:34;;;;;;;9.05;2.33;;;;;;;28.66;48.83;100790.72;2110081;28;20172;-74
2022/07/19 04:41:55;;;;;;;7.47;2.00;;;;;;;28.77;48.54;100800.03;2110093;28;20130;-73
2022/07/19 04:43:19;;;;;;;10.43;2.13;;;;;;;28.91;48.19;100802.78;2104354;28;20043;-74
2022/07/19 04:44:41;;;;;;;12.45;2.15;;;;;;;29.10;47.82;100802.56;2107812;28;20097;-73
2022/07/19 04:46:04;;;;;;;9.48;2.67;;;;;;;29.28;47.40;100800.53;2110121;28;20138;-73
2022/07/19 04:47:26;;;;;;;13.68;2.65;;;;;;;29.50;47.31;100802.88;2109800;28;20051;-74
2022/07/19 04:48:48;;;;;;;12.00;1.92;;;;;;;29.70;46.84;100808.81;2110166;28;20035;-74
2022/07/19 04:50:11;;;;;;;7.40;2.08;;;;;;;29.86;46.22;100807.84;2110165;28;20067;-73
2022/07/19 04:51:33;;;;;;;7.68;1.70;;;;;;;29.97;46.05;100816.22;2110089;28;20168;-74
2022/07/19 04:52:54;;;;;;;12.27;2.38;;;;;;;30.07;45.60;100820.97;2101838;28;20070;-74
2022/07/19 04:54:18;;;;;;;11.07;2.15;;;;;;;30.24;45.34;100811.72;2109630;28;20040;-73
2022/07/19 04:55:41;;;;;;;12.95;2.47;;;;;;;30.39;45.10;100818.03;2110474;28;20164;-74
2022/07/19 04:57:04;;;;;;;9.82;1.80;;;;;;;30.56;44.32;100808.75;2104382;28;20462;-73
2022/07/19 04:58:26;;;;;;;11.20;2.40;;;;;;;30.64;43.96;100815.44;2109855;28;20505;-74
2022/07/19 04:59:49;;;;;;;9.68;2.00;;;;;;;30.73;43.51;100814.81;2110281;28;20078;-74
2022/07/19 05:01:11;;;;;;;12.52;2.50;;;;;;;30.89;43.59;100814.66;2109668;28;20046;-74
2022/07/19 05:02:33;;;;;;;12.48;2.30;;;;;;;31.07;43.13;100818.88;2111450;28;20134;-74
2022/07/19 05:03:56;;;;;;;11.88;2.47;;;;;;;31.15;43.01;100819.22;2111772;28;20048;-74
2022/07/19 05:05:18;;;;;;;11.70;2.50;;;;;;;31.29;42.42;100823.72;2111414;28;20051;-74
2022/07/19 05:06:42;;;;;;;15.05;2.50;;;;;;;31.44;41.95;100821.78;2111465;28;20040;-74
2022/07/19 05:08:04;;;;;;;8.65;2.20;;;;;;;31.53;42.07;100824.72;2111462;28;20525;-74
2022/07/19 05:09:28;;;;;;;;;;;;;;;31.50;41.50;100818.63;2112100;28;20051;-74
2022/07/19 05:10:51;;;;;;;11.30;3.00;;;;;;;31.62;41.84;100824.13;2111621;28;20018;-74
2022/07/19 05:12:13;;;;;;;12.52;2.50;;;;;;;31.80;41.64;100821.03;2111540;28;20047;-74
2022/07/19 05:13:36;;;;;;;13.93;2.55;;;;;;;31.94;41.08;100819.06;2111323;28;20067;-73
2022/07/19 05:14:59;;;;;;;9.75;2.17;;;;;;;32.16;40.59;100843.03;2111387;28;20146;-74
2022/07/19 05:16:22;;;;;;;11.55;2.92;;;;;;;32.29;40.41;100827.47;2111399;28;20044;-73
2022/07/19 05:17:44;;;;;;;8.80;1.80;;;;;;;32.41;40.16;100834.75;2103063;28;20048;-73
2022/07/19 05:19:06;;;;;;;12.32;2.70;;;;;;;32.54;40.00;100833.84;2102388;27;20138;-74
2022/07/19 05:20:30;;;;;;;10.05;2.78;;;;;;;32.47;41.01;100835.28;2100747;28;20113;-74
2022/07/19 05:21:52;;;;;;;10.98;2.45;;;;;;;31.66;43.48;100832.97;2102432;28;20072;-74
2022/07/19 05:23:15;;;;;;;8.32;2.40;;;;;;;30.93;47.11;100837.13;2102758;28;20056;-77
2022/07/19 05:24:39;;;;;;;15.32;2.63;;;;;;;29.81;49.67;100829.91;2102213;28;20130;-76
2022/07/19 05:26:02;;;;;;;8.73;2.70;;;;;;;29.22;50.53;100831.72;2102100;28;20053;-75
2022/07/19 05:27:24;;;;;;;9.88;2.40;;;;;;;29.26;50.27;100835.16;2101108;28;20078;-76
2022/07/19 05:28:48;;;;;;;10.45;1.73;;;;;;;29.21;50.57;100827.25;2105818;28;20059;-76
2022/07/19 05:30:11;;;;;;;9.85;3.13;;;;;;;28.98;51.02;100835.94;2104670;28;20087;-75
2022/07/19 05:31:34;;;;;;;15.82;3.15;;;;;;;29.09;50.94;100836.16;2110614;28;20062;-74
2022/07/19 05:32:56;;;;;;;13.48;2.25;;;;;;;29.13;50.82;100835.03;2105299;28;20502;-75
2022/07/19 05:34:19;;;;;;;8.50;2.25;;;;;;;29.01;51.18;100837.59;2101997;28;20514;-74
2022/07/19 05:35:41;;;;;;;14.02;2.53;;;;;;;28.91;51.59;100839.97;2102455;28;20502;-74
2022/07/19 05:37:05;;;;;;;11.35;2.90;;;;;;;28.92;51.57;100844.44;2105314;28;20055;-74
2022/07/19 05:38:29;;;;;;;16.15;2.00;;;;;;;29.10;51.29;100843.34;2102562;28;20697;-74
2022/07/19 05:39:53;;;;;;;9.07;1.52;;;;;;;29.06;51.30;100846.34;2094486;28;20055;-74
2022/07/19 05:41:16;;;;;;;9.52;1.90;;;;;;;29.04;51.64;100849.16;2100253;28;20090;-74
2022/07/19 05:42:39;;;;;;;9.82;2.33;;;;;;;29.03;51.51;100841.09;2094145;28;20080;-74
2022/07/19 05:44:01;;;;;;;8.48;1.92;;;;;;;29.14;51.02;100836.78;2102673;28;20075;-74
2022/07/19 05:45:23;;;;;;;11.95;2.05;;;;;;;29.28;50.02;100847.66;2102789;28;20064;-74
2022/07/19 05:46:45;;;;;;;13.30;2.20;;;;;;;29.43;50.00;100840.47;2102678;28;20052;-74
2022/07/19 05:48:07;;;;;;;8.93;1.45;;;;;;;29.72;49.07;100844.09;2102599;28;20093;-74
2022/07/19 05:49:29;;;;;;;11.55;2.40;;;;;;;30.02;48.60;100844.03;2094618;28;20083;-73
2022/07/19 05:50:52;;;;;;;12.45;1.80;;;;;;;30.23;48.08;100842.66;2094198;28;20110;-74
2022/07/19 05:52:14;;;;;;;13.50;1.98;;;;;;;30.41;47.86;100856.94;2094518;28;20127;-74
2022/07/19 05:53:37;;;;;;;11.80;2.70;;;;;;;30.59;47.29;100850.28;2094476;28;20041;-73
2022/07/19 05:55:01;;;;;;;10.23;1.73;;;;;;;30.86;47.06;100844.84;2086250;28;20087;-74
2022/07/19 05:56:24;;;;;;;8.60;1.58;;;;;;;30.89;46.98;100839.19;2092038;28;20052;-74
2022/07/19 05:57:46;;;;;;;7.13;1.58;;;;;;;30.80;47.09;100845.25;2093929;28;20044;-74
2022/07/19 05:59:09;;;;;;;11.95;2.13;;;;;;;30.98;45.95;100844.03;2097369;28;20670;-74
2022/07/19 06:00:31;;;;;;;8.30;2.10;;;;;;;31.18;45.63;100849.00;2096499;28;20065;-73
2022/07/19 06:01:54;;;;;;;12.32;2.20;;;;;;;31.09;45.17;100851.50;2096233;28;20052;-74
2022/07/19 06:03:16;;;;;;;10.60;2.08;;;;;;;30.76;45.56;100841.88;2088095;28;20033;-74
2022/07/19 06:04:39;;;;;;;13.60;3.30;;;;;;;30.75;45.45;100850.16;2093818;28;20134;-74
2022/07/19 06:06:02;;;;;;;7.78;1.90;;;;;;;30.92;45.25;100843.59;2104682;28;20048;-74
2022/07/19 06:07:24;;;;;;;10.57;2.10;;;;;;;31.14;44.57;100852.06;2088348;28;20478;-73
2022/07/19 06:08:47;;;;;;;7.10;1.75;;;;;;;31.32;43.67;100847.19;2088613;28;20072;-74
2022/07/19 06:10:11;;;;;;;13.75;2.25;;;;;;;31.45;43.14;100851.69;2091762;28;20048;-73
2022/07/19 06:11:33;;;;;;;10.27;2.20;;;;;;;31.42;42.93;100848.31;2094115;28;20075;-73
2022/07/19 06:12:56;;;;;;;8.45;1.90;;;;;;;31.27;43.23;100853.84;2093122;28;20059;-74
2022/07/19 06:14:17;;;;;;;18.55;2.60;;;;;;;30.94;43.39;100849.78;2096888;28;20055;-74
2022/07/19 06:15:40;;;;;;;9.25;1.65;;;;;;;31.04;43.01;100845.47;2094442;28;20418;-74
2022/07/19 06:17:02;;;;;;;11.60;1.92;;;;;;;31.24;42.74;100850.47;2096908;28;20532;-74
2022/07/19 06:18:25;;;;;;;10.18;2.00;;;;;;;31.31;42.09;100843.56;2104937;28;20112;-73
2022/07/19 06:19:47;;;;;;;8.05;1.85;;;;;;;31.41;42.15;100838.38;2088599;28;20045;-73
2022/07/19 06:21:12;;;;;;;11.55;2.15;;;;;;;31.35;42.11;100845.13;2091596;28;20131;-74